Time;durP1;ratioP1;P1;durP2;ratioP2;P2;SDS_P1;SDS_P2;PMS_P1;PMS_P2;Temp;Humidity;BMP_temperature;BMP_pressure;BME280_temperature;BME280_humidity;BME280_pressure;Samples;Min_cycle;Max_cycle;Signal;HPM_P1;HPM_P2
2023/04/20 00:01:16;;;;;;;14.23;9.00;;;;;;;;;;2042211;29;20027;-90
2023/04/20 00:02:38;;;;;;;13.73;8.98;;;;;;;;;;2039264;29;20185;-90
2023/04/20 00:03:59;;;;;;;20.20;9.75;;;;;;;;;;2036302;29;20440;-88
2023/04/20 00:05:22;;;;;;;23.90;10.00;;;;;;;;;;2034287;29;20055;-90
2023/04/20 00:06:43;;;;;;;;;;;;;;;;;;2033640;29;20043;-89
2023/04/20 00:08:04;;;;;;;15.27;8.45;;;;;;;;;;2044302;29;19910;-89
2023/04/20 00:09:25;;;;;;;12.13;8.57;;;;;;;;;;2038208;29;20472;-89
2023/04/20 00:10:46;;;;;;;13.73;8.73;;;;;;;;;;2039450;29;20043;-91
2023/04/20 00:12:07;;;;;;;17.33;10.07;;;;;;;;;;2035904;29;20051;-89
2023/04/20 00:13:28;;;;;;;18.27;9.60;;;;;;;;;;2030537;29;20515;-89
2023/04/20 00:14:49;;;;;;;18.83;9.85;;;;;;;;;;2043573;29;20364;-89
2023/04/20 00:16:10;;;;;;;13.95;8.70;;;;;;;;;;2039978;29;20115;-89
2023/04/20 00:17:31;;;;;;;13.88;9.02;;;;;;;;;;2039361;28;20035;-88
2023/04/20 00:18:52;;;;;;;19.52;9.90;;;;;;;;;;2042922;28;20333;-89
2023/04/20 00:20:14;;;;;;;20.80;10.50;;;;;;;;;;2038706;29;20032;-89
2023/04/20 00:21:35;;;;;;;22.80;10.63;;;;;;;;;;2035816;29;20035;-90
2023/04/20 00:22:55;;;;;;;21.67;10.65;;;;;;;;;;2034017;29;20032;-89
2023/04/20 00:24:16;;;;;;;17.33;9.73;;;;;;;;;;2036746;29;20090;-89
2023/04/20 00:25:37;;;;;;;22.83;10.40;;;;;;;;;;2037329;29;20589;-89
2023/04/20 00:26:58;;;;;;;19.33;9.48;;;;;;;;;;2034378;29;20047;-90
2023/04/20 00:28:19;;;;;;;16.67;9.65;;;;;;;;;;2037401;29;20032;-90
2023/04/20 00:29:40;;;;;;;16.17;9.35;;;;;;;;;;2036533;28;20095;-89
2023/04/20 00:31:01;;;;;;;16.38;9.20;;;;;;;;;;2036125;29;20139;-90
2023/04/20 00:32:22;;;;;;;17.98;8.60;;;;;;;;;;2037448;29;20440;-90
2023/04/20 00:33:43;;;;;;;17.80;9.45;;;;;;;;;;2036868;29;20039;-89
2023/04/20 00:35:04;;;;;;;18.65;10.13;;;;;;;;;;2033632;29;20578;-89
2023/04/20 00:36:25;;;;;;;14.98;8.23;;;;;;;;;;2033034;29;20039;-90
2023/04/20 00:37:46;;;;;;;22.27;9.70;;;;;;;;;;2032130;29;20405;-89
2023/04/20 00:39:07;;;;;;;17.05;9.68;;;;;;;;;;2036211;29;20111;-89
2023/04/20 00:40:28;;;;;;;13.43;9.00;;;;;;;;;;2039558;29;20028;-90
2023/04/20 00:41:49;;;;;;;14.98;8.93;;;;;;;;;;2038059;29;20079;-90
2023/04/20 00:43:11;;;;;;;14.20;8.70;;;;;;;;;;2033013;29;20043;-90
2023/04/20 00:44:32;;;;;;;12.10;8.65;;;;;;;;;;2036184;29;20075;-90
2023/04/20 00:45:53;;;;;;;22.90;11.10;;;;;;;;;;2034346;29;20028;-89
2023/04/20 00:47:14;;;;;;;22.98;10.02;;;;;;;;;;2036470;29;20327;-90
2023/04/20 00:48:35;;;;;;;21.15;11.00;;;;;;;;;;2034740;28;20380;-89
2023/04/20 00:49:56;;;;;;;17.30;10.10;;;;;;;;;;2033036;29;20091;-88
2023/04/20 00:51:18;;;;;;;21.55;10.02;;;;;;;;;;2037011;29;20118;-88
2023/04/20 00:52:39;;;;;;;17.38;9.45;;;;;;;;;;2035071;29;20031;-90
2023/04/20 00:54:00;;;;;;;16.20;10.02;;;;;;;;;;2036143;29;20066;-90
2023/04/20 00:55:21;;;;;;;18.25;9.80;;;;;;;;;;2034383;29;20028;-89
2023/04/20 00:56:42;;;;;;;20.20;9.20;;;;;;;;;;2033368;29;20044;-89
2023/04/20 00:58:03;;;;;;;10.82;8.38;;;;;;;;;;2037460;29;20090;-89
2023/04/20 00:59:24;;;;;;;20.23;10.27;;;;;;;;;;2033323;29;20071;-89
2023/04/20 01:00:45;;;;;;;13.95;9.60;;;;;;;;;;2038119;29;20032;-92
2023/04/20 01:02:06;;;;;;;13.07;8.88;;;;;;;;;;2033690;29;20040;-92
2023/04/20 01:03:27;;;;;;;16.10;9.67;;;;;;;;;;2048209;23;20196;-78
2023/04/20 01:04:48;;;;;;;12.88;8.98;;;;;;;;;;2045711;29;20366;-78
2023/04/20 01:06:09;;;;;;;15.40;8.93;;;;;;;;;;2037309;29;20039;-78
2023/04/20 01:07:31;;;;;;;13.60;9.15;;;;;;;;;;2044877;28;20122;-78
2023/04/20 01:08:52;;;;;;;15.20;8.77;;;;;;;;;;2039618;28;20135;-78
2023/04/20 01:10:13;;;;;;;14.02;9.32;;;;;;;;;;2037139;29;20035;-78
2023/04/20 01:11:34;;;;;;;17.35;9.43;;;;;;;;;;2036425;29;20135;-78
2023/04/20 01:12:54;;;;;;;15.55;9.38;;;;;;;;;;2036521;29;20505;-78
2023/04/20 01:14:15;;;;;;;9.10;7.88;;;;;;;;;;2037388;29;20086;-78
2023/04/20 01:15:36;;;;;;;19.90;10.20;;;;;;;;;;2035770;29;20079;-77
2023/04/20 01:16:57;;;;;;;15.32;9.50;;;;;;;;;;2033720;29;20494;-78
2023/04/20 01:18:18;;;;;;;20.83;9.77;;;;;;;;;;2036292;29;20043;-78
2023/04/20 01:19:40;;;;;;;15.93;9.18;;;;;;;;;;2030151;29;20032;-78
2023/04/20 01:21:01;;;;;;;13.10;9.02;;;;;;;;;;2036441;29;20487;-78
2023/04/20 01:22:22;;;;;;;13.43;8.77;;;;;;;;;;2037723;29;20044;-78
2023/04/20 01:23:44;;;;;;;12.80;8.20;;;;;;;;;;2031443;29;20132;-78
2023/04/20 01:25:05;;;;;;;14.43;9.15;;;;;;;;;;2035199;29;20047;-78
2023/04/20 01:26:26;;;;;;;12.98;9.43;;;;;;;;;;2039497;29;20039;-78
2023/04/20 01:27:47;;;;;;;15.38;9.27;;;;;;;;;;2037396;29;20146;-78
2023/04/20 01:29:08;;;;;;;16.80;9.88;;;;;;;;;;2028935;29;20051;-78
2023/04/20 01:30:30;;;;;;;11.60;8.35;;;;;;;;;;2034939;29;20435;-77
2023/04/20 01:31:51;;;;;;;18.50;10.48;;;;;;;;;;2029471;29;20497;-77
2023/04/20 01:33:11;;;;;;;9.77;7.30;;;;;;;;;;2030922;29;20075;-77
2023/04/20 01:34:33;;;;;;;14.43;9.52;;;;;;;;;;2036462;29;20098;-77
2023/04/20 01:35:53;;;;;;;16.27;9.45;;;;;;;;;;2039025;29;20047;-77
2023/04/20 01:37:14;;;;;;;11.95;8.70;;;;;;;;;;2031036;29;20089;-77
2023/04/20 01:38:35;;;;;;;13.27;9.55;;;;;;;;;;2026517;29;20024;-78
2023/04/20 01:39:57;;;;;;;19.75;10.48;;;;;;;;;;2029305;29;20455;-77
2023/04/20 01:41:18;;;;;;;10.30;7.85;;;;;;;;;;2033957;29;20107;-77
2023/04/20 01:42:38;;;;;;;17.42;9.65;;;;;;;;;;2030045;29;20062;-77
2023/04/20 01:43:59;;;;;;;14.98;9.10;;;;;;;;;;2037951;29;20044;-77
2023/04/20 01:45:20;;;;;;;11.73;9.13;;;;;;;;;;2036911;29;20406;-77
2023/04/20 01:46:41;;;;;;;11.32;9.40;;;;;;;;;;2039940;29;20024;-77
2023/04/20 01:48:02;;;;;;;10.20;8.70;;;;;;;;;;2039554;29;20047;-77
2023/04/20 01:49:23;;;;;;;10.50;8.15;;;;;;;;;;2032558;29;20189;-77
2023/04/20 01:50:44;;;;;;;21.42;10.52;;;;;;;;;;2027306;29;20035;-77
2023/04/20 01:52:05;;;;;;;11.70;9.05;;;;;;;;;;2030062;29;20028;-77
2023/04/20 01:53:26;;;;;;;11.82;9.13;;;;;;;;;;2034703;29;20032;-77
2023/04/20 01:54:47;;;;;;;14.88;9.63;;;;;;;;;;2031225;29;20047;-77
2023/04/20 01:56:08;;;;;;;11.52;8.38;;;;;;;;;;2027533;29;20035;-77
2023/04/20 01:57:29;;;;;;;15.70;10.18;;;;;;;;;;2034646;29;20044;-77
2023/04/20 01:58:50;;;;;;;16.40;9.40;;;;;;;;;;2039082;29;20435;-77
2023/04/20 02:00:11;;;;;;;16.00;9.55;;;;;;;;;;2040623;28;20031;-77
2023/04/20 02:01:32;;;;;;;20.07;10.63;;;;;;;;;;2036350;29;20047;-77
2023/04/20 02:02:53;;;;;;;13.98;9.05;;;;;;;;;;2037972;28;20855;-77
2023/04/20 02:04:14;;;;;;;13.75;9.45;;;;;;;;;;2030952;29;20048;-77
2023/04/20 02:05:35;;;;;;;14.43;8.90;;;;;;;;;;2026327;29;20432;-77
2023/04/20 02:06:56;;;;;;;21.50;9.85;;;;;;;;;;2033814;29;20047;-77
2023/04/20 02:08:17;;;;;;;15.57;9.32;;;;;;;;;;2029716;29;20040;-77
2023/04/20 02:09:38;;;;;;;13.40;9.65;;;;;;;;;;2035996;29;20124;-77
2023/04/20 02:10:59;;;;;;;13.88;9.05;;;;;;;;;;2038518;29;20055;-77
2023/04/20 02:12:19;;;;;;;16.38;9.65;;;;;;;;;;2037481;29;20035;-77
2023/04/20 02:13:40;;;;;;;14.32;9.45;;;;;;;;;;2037627;29;20032;-77
2023/04/20 02:15:03;;;;;;;15.27;9.70;;;;;;;;;;2029048;29;20036;-77
2023/04/20 02:16:24;;;;;;;15.55;9.95;;;;;;;;;;2034573;29;20019;-77
2023/04/20 02:17:45;;;;;;;20.92;10.50;;;;;;;;;;2029390;29;20111;-77
2023/04/20 02:19:06;;;;;;;17.52;10.18;;;;;;;;;;2025529;29;20572;-77
2023/04/20 02:20:27;;;;;;;16.48;9.35;;;;;;;;;;2034759;29;20047;-77
2023/04/20 02:21:48;;;;;;;19.55;10.18;;;;;;;;;;2035090;29;20048;-77
2023/04/20 02:23:09;;;;;;;18.77;9.27;;;;;;;;;;2029601;29;20040;-77
2023/04/20 02:24:30;;;;;;;14.93;8.73;;;;;;;;;;2034354;29;20031;-77
2023/04/20 02:25:51;;;;;;;14.43;9.10;;;;;;;;;;2037447;29;20047;-77
2023/04/20 02:27:12;;;;;;;13.13;9.10;;;;;;;;;;2037308;29;20099;-77
2023/04/20 02:28:33;;;;;;;18.35;10.10;;;;;;;;;;2035220;29;20392;-77
2023/04/20 02:29:54;;;;;;;11.00;8.30;;;;;;;;;;2037082;29;20103;-77
2023/04/20 02:31:15;;;;;;;11.68;9.10;;;;;;;;;;2031212;29;20425;-77
2023/04/20 02:32:36;;;;;;;16.77;8.57;;;;;;;;;;2035076;29;20055;-77
2023/04/20 02:33:57;;;;;;;16.77;10.25;;;;;;;;;;2038337;29;20043;-77
2023/04/20 02:35:18;;;;;;;13.95;9.57;;;;;;;;;;2031027;29;20039;-77
2023/04/20 02:36:39;;;;;;;14.07;9.75;;;;;;;;;;2035610;29;20032;-77
2023/04/20 02:38:01;;;;;;;16.27;10.02;;;;;;;;;;2035633;29;20114;-77
2023/04/20 02:39:21;;;;;;;22.23;11.07;;;;;;;;;;2035802;29;20388;-77
2023/04/20 02:40:42;;;;;;;13.98;8.70;;;;;;;;;;2030792;29;20091;-77
2023/04/20 02:42:04;;;;;;;17.92;9.98;;;;;;;;;;2035169;29;20043;-77
2023/04/20 02:43:25;;;;;;;17.65;10.20;;;;;;;;;;2038587;29;20032;-80
2023/04/20 02:44:46;;;;;;;20.00;9.90;;;;;;;;;;2029956;29;20540;-80
2023/04/20 02:46:07;;;;;;;17.52;9.95;;;;;;;;;;2036852;29;20047;-76
2023/04/20 02:47:27;;;;;;;16.48;9.40;;;;;;;;;;2023228;29;20377;-76
2023/04/20 02:48:48;;;;;;;14.95;9.52;;;;;;;;;;2031751;29;20039;-76
2023/04/20 02:50:10;;;;;;;14.43;10.20;;;;;;;;;;2029781;29;20449;-77
2023/04/20 02:51:31;;;;;;;13.33;9.10;;;;;;;;;;2034768;29;20129;-76
2023/04/20 02:52:52;;;;;;;15.07;8.82;;;;;;;;;;2039344;29;20748;-77
2023/04/20 02:54:13;;;;;;;19.38;10.65;;;;;;;;;;2029424;29;20064;-76
2023/04/20 02:55:33;;;;;;;18.23;10.73;;;;;;;;;;2030508;29;20142;-77
2023/04/20 02:56:55;;;;;;;16.63;9.82;;;;;;;;;;2025757;29;20413;-76
2023/04/20 02:58:16;;;;;;;13.32;10.07;;;;;;;;;;2036769;29;20042;-76
2023/04/20 02:59:37;;;;;;;18.25;10.63;;;;;;;;;;2036586;29;20063;-76
2023/04/20 03:00:59;;;;;;;13.13;9.63;;;;;;;;;;2030441;29;20088;-76
2023/04/20 03:02:20;;;;;;;16.00;9.52;;;;;;;;;;2030236;29;20032;-77
2023/04/20 03:03:41;;;;;;;15.60;10.40;;;;;;;;;;2034177;29;20140;-76
2023/04/20 03:05:02;;;;;;;18.52;10.35;;;;;;;;;;2040065;29;20035;-76
2023/04/20 03:06:23;;;;;;;14.35;9.60;;;;;;;;;;2029033;29;20040;-76
2023/04/20 03:07:44;;;;;;;17.15;9.98;;;;;;;;;;2034364;29;20028;-76
2023/04/20 03:09:05;;;;;;;16.77;9.55;;;;;;;;;;2038626;29;20515;-76
2023/04/20 03:10:25;;;;;;;14.80;9.20;;;;;;;;;;2035264;29;20043;-76
2023/04/20 03:11:47;;;;;;;20.13;10.60;;;;;;;;;;2031129;29;20048;-76
2023/04/20 03:13:08;;;;;;;12.05;9.65;;;;;;;;;;2036498;29;20027;-77
2023/04/20 03:14:29;;;;;;;12.73;8.77;;;;;;;;;;2029722;29;20052;-75
2023/04/20 03:15:50;;;;;;;19.15;10.45;;;;;;;;;;2029352;29;20076;-75
2023/04/20 03:17:11;;;;;;;17.83;9.85;;;;;;;;;;2033136;29;20111;-75
2023/04/20 03:18:32;;;;;;;12.95;8.98;;;;;;;;;;2030924;29;20029;-75
2023/04/20 03:19:53;;;;;;;18.63;9.20;;;;;;;;;;2029355;29;20561;-75
2023/04/20 03:21:14;;;;;;;17.45;10.15;;;;;;;;;;2035874;29;20036;-75
2023/04/20 03:22:35;;;;;;;14.35;9.43;;;;;;;;;;2038648;28;20107;-75
2023/04/20 03:23:55;;;;;;;14.52;9.15;;;;;;;;;;2027473;29;20028;-75
2023/04/20 03:25:16;;;;;;;17.13;10.80;;;;;;;;;;2034781;29;20031;-75
2023/04/20 03:26:37;;;;;;;15.93;9.95;;;;;;;;;;2031371;29;20431;-75
2023/04/20 03:27:58;;;;;;;15.07;9.60;;;;;;;;;;2036381;29;20031;-75
2023/04/20 03:29:19;;;;;;;13.10;9.48;;;;;;;;;;2028920;29;20239;-76
2023/04/20 03:30:40;;;;;;;11.70;8.73;;;;;;;;;;2034697;29;20035;-76
2023/04/20 03:32:02;;;;;;;15.93;10.15;;;;;;;;;;2035341;29;20111;-75
2023/04/20 03:33:23;;;;;;;12.80;9.32;;;;;;;;;;2035772;29;20039;-75
2023/04/20 03:34:43;;;;;;;18.98;9.82;;;;;;;;;;2037733;29;20027;-75
2023/04/20 03:36:05;;;;;;;19.63;10.70;;;;;;;;;;2035868;29;20062;-75
2023/04/20 03:37:26;;;;;;;20.50;10.73;;;;;;;;;;2031927;28;20104;-75
2023/04/20 03:38:46;;;;;;;13.35;9.55;;;;;;;;;;2027253;29;20964;-75
2023/04/20 03:40:08;;;;;;;16.25;9.95;;;;;;;;;;2034734;29;20043;-75
2023/04/20 03:41:29;;;;;;;15.43;9.68;;;;;;;;;;2037157;29;20036;-75
2023/04/20 03:42:50;;;;;;;14.75;9.93;;;;;;;;;;2037355;28;20047;-75
2023/04/20 03:44:12;;;;;;;14.13;8.80;;;;;;;;;;2038345;29;20118;-75
2023/04/20 03:45:33;;;;;;;;;;;;;;;;;;2039061;29;20036;-75
2023/04/20 03:46:54;;;;;;;16.67;10.15;;;;;;;;;;2033269;29;19915;-75
2023/04/20 03:48:15;;;;;;;14.82;9.90;;;;;;;;;;2027629;29;20108;-75
2023/04/20 03:49:36;;;;;;;14.93;10.35;;;;;;;;;;2034945;28;20044;-76
2023/04/20 03:50:57;;;;;;;18.30;10.30;;;;;;;;;;2030576;29;20479;-75
2023/04/20 03:52:18;;;;;;;21.15;10.63;;;;;;;;;;2025917;29;20036;-76
2023/04/20 03:53:39;;;;;;;20.13;10.63;;;;;;;;;;2025982;29;20028;-75
2023/04/20 03:55:00;;;;;;;16.15;9.82;;;;;;;;;;2035158;29;20027;-75
2023/04/20 03:56:21;;;;;;;16.20;9.68;;;;;;;;;;2029940;29;20072;-76
2023/04/20 03:57:42;;;;;;;12.38;8.52;;;;;;;;;;2026140;29;20032;-75
2023/04/20 03:59:03;;;;;;;14.98;9.82;;;;;;;;;;2033377;29;20318;-76
2023/04/20 04:00:24;;;;;;;20.33;10.15;;;;;;;;;;2029427;29;20044;-75
2023/04/20 04:01:45;;;;;;;16.30;10.57;;;;;;;;;;2027866;29;20108;-75
2023/04/20 04:03:06;;;;;;;16.60;10.25;;;;;;;;;;2032211;29;20043;-75
2023/04/20 04:04:27;;;;;;;15.68;9.27;;;;;;;;;;2030264;29;20052;-79
2023/04/20 04:05:48;;;;;;;14.02;9.40;;;;;;;;;;2017877;29;20101;-79
2023/04/20 04:07:09;;;;;;;14.88;9.27;;;;;;;;;;2031116;29;20447;-79
2023/04/20 04:08:31;;;;;;;19.02;11.02;;;;;;;;;;2037685;29;20198;-78
2023/04/20 04:09:52;;;;;;;14.95;9.48;;;;;;;;;;2037018;29;20059;-79
2023/04/20 04:11:13;;;;;;;15.20;10.13;;;;;;;;;;2039442;29;20087;-79
2023/04/20 04:12:34;;;;;;;15.95;10.45;;;;;;;;;;2029981;29;20024;-79
2023/04/20 04:13:55;;;;;;;20.42;10.77;;;;;;;;;;2026694;29;20329;-79
2023/04/20 04:15:18;;;;;;;14.55;9.38;;;;;;;;;;2029185;29;20032;-79
2023/04/20 04:16:39;;;;;;;13.70;9.40;;;;;;;;;;2035696;29;20091;-79
2023/04/20 04:18:00;;;;;;;16.65;11.27;;;;;;;;;;2038685;29;20059;-79
2023/04/20 04:19:21;;;;;;;16.15;10.57;;;;;;;;;;2029688;29;20024;-79
2023/04/20 04:20:42;;;;;;;15.63;9.93;;;;;;;;;;2034831;29;20067;-80
2023/04/20 04:22:02;;;;;;;15.90;10.68;;;;;;;;;;2037889;29;20040;-80
2023/04/20 04:23:23;;;;;;;15.75;10.15;;;;;;;;;;2036946;29;21062;-79
2023/04/20 04:24:44;;;;;;;18.67;10.98;;;;;;;;;;2036362;29;20531;-80
2023/04/20 04:26:05;;;;;;;16.17;10.00;;;;;;;;;;2035777;29;20098;-80
2023/04/20 04:27:28;;;;;;;14.05;9.50;;;;;;;;;;2037095;29;20035;-79
2023/04/20 04:28:50;;;;;;;14.65;10.30;;;;;;;;;;2036757;29;20407;-80
2023/04/20 04:30:12;;;;;;;16.95;10.35;;;;;;;;;;2029881;29;20052;-80
2023/04/20 04:31:33;;;;;;;18.90;10.70;;;;;;;;;;2029249;29;20048;-79
2023/04/20 04:32:54;;;;;;;19.10;11.55;;;;;;;;;;2032057;29;20330;-79
2023/04/20 04:34:17;;;;;;;14.85;10.05;;;;;;;;;;2030740;29;20083;-79
2023/04/20 04:35:40;;;;;;;15.38;9.27;;;;;;;;;;2028743;29;21225;-79
2023/04/20 04:37:01;;;;;;;32.90;12.93;;;;;;;;;;2034281;29;21252;-80
2023/04/20 04:38:22;;;;;;;13.07;9.70;;;;;;;;;;2038312;29;20028;-80
2023/04/20 04:39:43;;;;;;;20.30;10.07;;;;;;;;;;2036904;28;20096;-80
2023/04/20 04:41:04;;;;;;;14.18;10.38;;;;;;;;;;2038315;29;20040;-80
2023/04/20 04:42:26;;;;;;;18.70;10.43;;;;;;;;;;2030510;29;20031;-80
2023/04/20 04:43:47;;;;;;;13.77;9.90;;;;;;;;;;2037274;29;20043;-79
2023/04/20 04:45:09;;;;;;;15.68;10.25;;;;;;;;;;2037401;29;20035;-79
2023/04/20 04:46:31;;;;;;;17.00;10.40;;;;;;;;;;2031251;29;20036;-80
2023/04/20 04:47:52;;;;;;;24.42;12.02;;;;;;;;;;2034293;29;20110;-79
2023/04/20 04:49:13;;;;;;;17.33;10.65;;;;;;;;;;2035205;29;20394;-80
2023/04/20 04:50:34;;;;;;;18.10;9.93;;;;;;;;;;2037405;29;20505;-80
2023/04/20 04:51:55;;;;;;;20.63;11.23;;;;;;;;;;2028770;29;20538;-80
2023/04/20 04:53:16;;;;;;;20.02;10.55;;;;;;;;;;2026202;29;20049;-80
2023/04/20 04:54:37;;;;;;;16.58;10.23;;;;;;;;;;2034597;29;20534;-80
2023/04/20 04:55:58;;;;;;;19.25;11.00;;;;;;;;;;2037550;29;20036;-79
2023/04/20 04:57:19;;;;;;;19.27;10.23;;;;;;;;;;2036320;29;20187;-80
2023/04/20 04:58:40;;;;;;;17.90;11.07;;;;;;;;;;2035654;29;20038;-80
2023/04/20 05:00:01;;;;;;;14.82;9.80;;;;;;;;;;2028322;29;20873;-80
2023/04/20 05:01:22;;;;;;;17.00;10.15;;;;;;;;;;2036025;29;20031;-80
2023/04/20 05:02:43;;;;;;;14.45;9.90;;;;;;;;;;2035496;29;20087;-79
2023/04/20 05:04:04;;;;;;;18.70;10.88;;;;;;;;;;2037108;29;20514;-79
2023/04/20 05:05:25;;;;;;;20.55;10.15;;;;;;;;;;2036939;29;20115;-79
2023/04/20 05:06:45;;;;;;;15.25;10.23;;;;;;;;;;2028524;29;20103;-79
2023/04/20 05:08:06;;;;;;;16.88;10.25;;;;;;;;;;2034098;29;20035;-78
2023/04/20 05:09:32;;;;;;;20.48;11.80;;;;;;;;;;2035605;29;20035;-79
2023/04/20 05:10:53;;;;;;;18.10;10.25;;;;;;;;;;2037027;29;20047;-79
2023/04/20 05:12:14;;;;;;;21.58;11.30;;;;;;;;;;2026012;29;20497;-79
2023/04/20 05:13:35;;;;;;;25.20;11.43;;;;;;;;;;2033374;29;20036;-79
2023/04/20 05:14:55;;;;;;;16.17;10.00;;;;;;;;;;2029708;29;20044;-79
2023/04/20 05:16:17;;;;;;;16.77;10.23;;;;;;;;;;2025732;29;20519;-79
2023/04/20 05:17:38;;;;;;;20.98;9.68;;;;;;;;;;2026960;29;20036;-79
2023/04/20 05:18:58;;;;;;;19.50;10.65;;;;;;;;;;2026867;29;20791;-79
2023/04/20 05:20:20;;;;;;;22.17;10.60;;;;;;;;;;2035371;29;20043;-79
2023/04/20 05:21:40;;;;;;;16.00;10.73;;;;;;;;;;2039028;29;20050;-79
2023/04/20 05:23:01;;;;;;;20.48;10.57;;;;;;;;;;2028347;29;20103;-79
2023/04/20 05:24:22;;;;;;;20.58;11.15;;;;;;;;;;2025555;29;20480;-79
2023/04/20 05:25:43;;;;;;;14.98;9.73;;;;;;;;;;2035161;29;20032;-79
2023/04/20 05:27:04;;;;;;;17.30;10.13;;;;;;;;;;2038253;28;20389;-79
2023/04/20 05:28:25;;;;;;;22.50;11.02;;;;;;;;;;2036782;29;20036;-79
2023/04/20 05:29:46;;;;;;;19.90;9.23;;;;;;;;;;2022101;29;20108;-80
2023/04/20 05:31:07;;;;;;;13.95;9.43;;;;;;;;;;2033101;29;20043;-80
2023/04/20 05:32:28;;;;;;;23.60;10.27;;;;;;;;;;2037415;29;20043;-80
2023/04/20 05:33:49;;;;;;;13.77;10.50;;;;;;;;;;2030958;29;20515;-79
2023/04/20 05:35:10;;;;;;;21.98;9.93;;;;;;;;;;2029016;29;20376;-80
2023/04/20 05:36:32;;;;;;;27.60;11.88;;;;;;;;;;2031239;29;20036;-79
2023/04/20 05:37:53;;;;;;;13.15;9.82;;;;;;;;;;2030093;29;20036;-80
2023/04/20 05:39:14;;;;;;;20.20;10.88;;;;;;;;;;2032941;29;20032;-79
2023/04/20 05:40:35;;;;;;;20.90;10.73;;;;;;;;;;2029844;29;20036;-79
2023/04/20 05:41:56;;;;;;;17.63;10.35;;;;;;;;;;2023312;29;20151;-79
2023/04/20 05:43:18;;;;;;;18.13;10.85;;;;;;;;;;2040123;29;20063;-79
2023/04/20 05:44:40;;;;;;;16.20;9.32;;;;;;;;;;2039596;29;20047;-79
2023/04/20 05:46:00;;;;;;;15.55;10.05;;;;;;;;;;2038606;29;20439;-79
2023/04/20 05:47:21;;;;;;;14.20;9.38;;;;;;;;;;2038668;29;20074;-79
2023/04/20 05:48:42;;;;;;;15.60;10.55;;;;;;;;;;2029473;29;20028;-79
2023/04/20 05:50:03;;;;;;;17.42;9.10;;;;;;;;;;2026885;29;20076;-79
2023/04/20 05:51:27;;;;;;;18.95;10.70;;;;;;;;;;2022364;29;20369;-79
2023/04/20 05:52:49;;;;;;;22.80;11.10;;;;;;;;;;2035577;29;20039;-79
2023/04/20 05:54:09;;;;;;;17.70;10.50;;;;;;;;;;2038107;29;20032;-79
2023/04/20 05:55:30;;;;;;;17.80;10.75;;;;;;;;;;2028117;29;20120;-79
2023/04/20 05:56:51;;;;;;;21.92;11.40;;;;;;;;;;2023999;29;20037;-78
2023/04/20 05:58:12;;;;;;;21.48;10.93;;;;;;;;;;2034611;29;20391;-79
2023/04/20 05:59:33;;;;;;;22.80;12.07;;;;;;;;;;2035523;29;20582;-79
2023/04/20 06:00:54;;;;;;;17.23;10.13;;;;;;;;;;2036809;29;20044;-79
2023/04/20 06:02:15;;;;;;;15.27;9.90;;;;;;;;;;2034413;29;20032;-79
2023/04/20 06:03:36;;;;;;;18.77;10.82;;;;;;;;;;2034145;29;20158;-79
2023/04/20 06:04:57;;;;;;;18.92;11.05;;;;;;;;;;2028978;29;20540;-79
2023/04/20 06:06:18;;;;;;;14.60;10.32;;;;;;;;;;2034231;29;20209;-80
2023/04/20 06:07:39;;;;;;;22.83;12.10;;;;;;;;;;2035457;29;20036;-80
2023/04/20 06:09:00;;;;;;;20.27;10.80;;;;;;;;;;2038837;29;20031;-79
2023/04/20 06:10:21;;;;;;;16.25;10.35;;;;;;;;;;2028824;29;20539;-79
2023/04/20 06:11:42;;;;;;;20.98;10.23;;;;;;;;;;2032982;29;20119;-81
2023/04/20 06:13:03;;;;;;;17.42;10.25;;;;;;;;;;2037727;29;20479;-77
2023/04/20 06:14:23;;;;;;;19.08;11.18;;;;;;;;;;2036422;29;20040;-77
2023/04/20 06:15:44;;;;;;;19.10;10.40;;;;;;;;;;2036547;29;20035;-77
2023/04/20 06:17:05;;;;;;;23.05;11.43;;;;;;;;;;2035513;29;20040;-77
2023/04/20 06:18:27;;;;;;;18.85;10.63;;;;;;;;;;2036154;29;20035;-77
2023/04/20 06:19:48;;;;;;;21.05;11.32;;;;;;;;;;2036058;29;20028;-76
2023/04/20 06:21:09;;;;;;;17.50;10.15;;;;;;;;;;2036935;29;20036;-77
2023/04/20 06:22:30;;;;;;;15.93;10.75;;;;;;;;;;2037274;29;20134;-77
2023/04/20 06:23:51;;;;;;;19.60;11.50;;;;;;;;;;2036869;29;20044;-77
2023/04/20 06:25:12;;;;;;;22.25;12.35;;;;;;;;;;2035772;29;20047;-74
2023/04/20 06:26:33;;;;;;;17.98;10.60;;;;;;;;;;2035130;29;20036;-74
2023/04/20 06:27:54;;;;;;;15.77;10.48;;;;;;;;;;2037513;29;20035;-74
2023/04/20 06:29:15;;;;;;;17.92;10.25;;;;;;;;;;2039034;29;20040;-74
2023/04/20 06:30:36;;;;;;;14.93;10.15;;;;;;;;;;2039667;29;20515;-74
2023/04/20 06:31:57;;;;;;;17.45;10.32;;;;;;;;;;2029493;29;20044;-74
2023/04/20 06:33:18;;;;;;;20.30;10.00;;;;;;;;;;2034237;29;20122;-75
2023/04/20 06:34:39;;;;;;;20.95;12.00;;;;;;;;;;2030597;29;20024;-74
2023/04/20 06:36:00;;;;;;;15.60;11.18;;;;;;;;;;2036033;29;20024;-74
2023/04/20 06:37:21;;;;;;;18.77;11.10;;;;;;;;;;2029130;29;20095;-74
2023/04/20 06:38:42;;;;;;;19.95;10.70;;;;;;;;;;2036714;29;20035;-74
2023/04/20 06:40:06;;;;;;;19.25;11.15;;;;;;;;;;2036869;29;20047;-74
2023/04/20 06:41:27;;;;;;;18.27;10.55;;;;;;;;;;2035534;29;20032;-74
2023/04/20 06:42:48;;;;;;;16.98;11.98;;;;;;;;;;2031176;29;20167;-74
2023/04/20 06:44:09;;;;;;;17.63;10.65;;;;;;;;;;2030250;29;20047;-74
2023/04/20 06:45:30;;;;;;;23.85;12.02;;;;;;;;;;2037852;29;20463;-74
2023/04/20 06:46:51;;;;;;;19.25;11.60;;;;;;;;;;2037570;29;20032;-74
2023/04/20 06:48:12;;;;;;;17.20;10.88;;;;;;;;;;2039838;29;20036;-74
2023/04/20 06:49:33;;;;;;;22.92;13.48;;;;;;;;;;2039036;29;20110;-75
2023/04/20 06:50:53;;;;;;;15.30;10.55;;;;;;;;;;2029317;29;20043;-74
2023/04/20 06:52:14;;;;;;;18.65;11.13;;;;;;;;;;2029674;29;20032;-74
2023/04/20 06:53:35;;;;;;;14.77;10.02;;;;;;;;;;2036821;29;20054;-75
2023/04/20 06:54:59;;;;;;;14.18;10.02;;;;;;;;;;2031971;29;20032;-75
2023/04/20 06:56:20;;;;;;;18.60;11.38;;;;;;;;;;2032247;29;20043;-74
2023/04/20 06:57:42;;;;;;;14.68;10.93;;;;;;;;;;2031698;29;20096;-74
2023/04/20 06:59:03;;;;;;;;;;;;;;;;;;2036113;29;23157;-74
2023/04/20 07:00:27;;;;;;;22.77;12.13;;;;;;;;;;2030414;29;19929;-73
2023/04/20 07:01:47;;;;;;;18.65;11.35;;;;;;;;;;2034333;29;20039;-74
2023/04/20 07:03:08;;;;;;;16.50;10.38;;;;;;;;;;2032135;29;20539;-74
2023/04/20 07:04:29;;;;;;;19.83;10.98;;;;;;;;;;2037279;29;20090;-73
2023/04/20 07:05:50;;;;;;;20.00;10.43;;;;;;;;;;2039095;29;20526;-74
2023/04/20 07:07:11;;;;;;;16.98;11.00;;;;;;;;;;2038411;29;20093;-74
2023/04/20 07:08:32;;;;;;;13.68;9.95;;;;;;;;;;2034808;29;20036;-74
2023/04/20 07:09:53;;;;;;;19.88;12.23;;;;;;;;;;2038089;29;20355;-74
2023/04/20 07:11:14;;;;;;;14.98;11.20;;;;;;;;;;2039256;29;20585;-74
2023/04/20 07:12:35;;;;;;;19.42;11.30;;;;;;;;;;2035908;29;20160;-74
2023/04/20 07:13:56;;;;;;;17.95;10.57;;;;;;;;;;2031244;29;20080;-74
2023/04/20 07:15:17;;;;;;;23.10;11.38;;;;;;;;;;2037571;28;20546;-74
2023/04/20 07:16:38;;;;;;;19.33;10.73;;;;;;;;;;2038281;29;20044;-74
2023/04/20 07:17:59;;;;;;;15.68;10.75;;;;;;;;;;2036802;29;20032;-74
2023/04/20 07:19:20;;;;;;;16.55;10.85;;;;;;;;;;2035750;29;20035;-74
2023/04/20 07:20:41;;;;;;;16.60;10.55;;;;;;;;;;2036339;29;20111;-74
2023/04/20 07:22:02;;;;;;;20.80;10.48;;;;;;;;;;2038032;29;20027;-73
2023/04/20 07:23:23;;;;;;;21.27;11.88;;;;;;;;;;2029779;29;20025;-75
2023/04/20 07:24:44;;;;;;;17.98;10.88;;;;;;;;;;2030191;29;20040;-74
2023/04/20 07:26:06;;;;;;;20.33;11.05;;;;;;;;;;2031691;29;20123;-74
2023/04/20 07:27:28;;;;;;;23.40;11.07;;;;;;;;;;2036097;29;20118;-74
2023/04/20 07:28:50;;;;;;;19.45;11.85;;;;;;;;;;2037284;29;20054;-74
2023/04/20 07:30:11;;;;;;;17.08;10.63;;;;;;;;;;2039701;29;20040;-74
2023/04/20 07:31:32;;;;;;;15.13;9.75;;;;;;;;;;2039212;29;20413;-74
2023/04/20 07:32:52;;;;;;;19.27;11.25;;;;;;;;;;2039438;29;20174;-74
2023/04/20 07:34:13;;;;;;;18.85;11.73;;;;;;;;;;2039012;29;20043;-74
2023/04/20 07:35:34;;;;;;;19.58;10.85;;;;;;;;;;2038554;29;20506;-74
2023/04/20 07:36:55;;;;;;;18.98;10.25;;;;;;;;;;2038406;29;20047;-74
2023/04/20 07:38:16;;;;;;;17.05;9.52;;;;;;;;;;2038667;29;20028;-75
2023/04/20 07:39:37;;;;;;;19.75;9.85;;;;;;;;;;2030828;29;20437;-74
2023/04/20 07:40:58;;;;;;;16.33;9.57;;;;;;;;;;2033492;29;20048;-74
2023/04/20 07:42:20;;;;;;;18.90;9.77;;;;;;;;;;2027795;29;20085;-73
2023/04/20 07:43:40;;;;;;;18.80;10.13;;;;;;;;;;2035114;29;20032;-74
2023/04/20 07:45:08;;;;;;;16.08;9.90;;;;;;;;;;2031580;29;20036;-74
2023/04/20 07:46:29;;;;;;;16.83;9.15;;;;;;;;;;2037378;29;20023;-74
2023/04/20 07:47:51;;;;;;;16.77;9.23;;;;;;;;;;2038154;29;20081;-74
2023/04/20 07:49:12;;;;;;;16.38;9.23;;;;;;;;;;2037974;29;20594;-74
2023/04/20 07:50:32;;;;;;;17.42;9.50;;;;;;;;;;2039267;29;20094;-74
2023/04/20 07:51:53;;;;;;;17.80;10.15;;;;;;;;;;2038103;29;20142;-74
2023/04/20 07:53:14;;;;;;;12.30;9.15;;;;;;;;;;2038487;29;20479;-74
2023/04/20 07:54:35;;;;;;;15.23;9.18;;;;;;;;;;2038845;29;20039;-74
2023/04/20 07:55:56;;;;;;;17.58;9.70;;;;;;;;;;2029696;29;20036;-74